Wade, Mississippi
Current Conditions -  °F | °C
As of 6:53 AM on Tuesday 21 Oct 2014 (Local Time) from KPQL Reporting Station
Clear Clear  
Wind Chill: 48°   Ceiling: Unl
Heat Index: 48°   Visibility: 7mi
Dew Point: 48°   Wind: 3mph
Humidity: 100%   Direction: 350°N
Pressure: 30.04"   Gusts: NA
Location:  30.3649°N, 88.5432°W
Report Text: KPQL 211153Z 35003KT 7SM CLR 09/09 A3004 RMK AO2 SLP172 T00890089 10100 20078 51010
Loading
Personal Weather Stations






























Interactive Weather Map
Tropical Storm Tracking
New forecast layout! Learn more

10-Day Weather Forecast

Advertisements
Track Severe Weather on mobile